Stephen F Austin University, Texas
Current Conditions -  °F | °C
As of 10:35 AM on Thursday 29 Jan 2015 (Local Time) from KOCH Reporting Station
Broken Clouds Broken Clouds  
Wind Chill: 64°   Ceiling: 10000
Heat Index: 64°   Visibility: 10mi
Dew Point: 54°   Wind: 8mph
Humidity: 68%   Direction: 240°WSW
Pressure: 30.25"   Gusts: NA
Location:  31.6149°N, 94.6519°W
Report Text: KOCH 291635Z AUTO 24007KT 10SM BKN100 18/12 A3025 RMK AO1
Loading
Personal Weather Stations






























Interactive Weather Map New forecast layout! Learn more

10-Day Weather Forecast

Advertisements
Track Severe Weather on mobile